createdAt,value
2019-05-07T00:03:03.199Z,21.38
2019-05-07T00:08:06.710Z,21.37
2019-05-07T00:13:12.731Z,21.37
2019-05-07T00:18:15.973Z,21.37
2019-05-07T00:23:19.734Z,21.33
2019-05-07T00:28:23.501Z,21.33
2019-05-07T00:33:27.283Z,21.43
2019-05-07T00:38:33.984Z,21.43
2019-05-07T00:43:40.091Z,21.31
2019-05-07T00:48:43.880Z,21.31
2019-05-07T00:53:47.684Z,21.27
2019-05-07T00:58:52.756Z,21.18
2019-05-07T01:03:57.433Z,21.18
2019-05-07T01:09:03.200Z,21.29
2019-05-07T01:14:06.719Z,21.29
2019-05-07T01:19:12.531Z,21.30
2019-05-07T01:24:16.012Z,21.30
2019-05-07T01:29:19.811Z,21.28
2019-05-07T01:34:29.658Z,21.20
2019-05-07T01:39:33.444Z,21.07
2019-05-07T01:44:37.216Z,21.07
2019-05-07T01:49:42.216Z,20.78
2019-05-07T01:54:47.512Z,20.78
2019-05-07T01:59:52.800Z,20.63
2019-05-07T02:05:26.262Z,20.62
2019-05-07T02:11:04.194Z,20.60
2019-05-07T02:16:08.053Z,20.60
2019-05-07T02:21:12.847Z,20.56
2019-05-07T02:26:16.927Z,20.52
2019-05-07T02:31:23.121Z,20.51
2019-05-07T02:36:26.324Z,20.39
2019-05-07T02:41:33.316Z,20.47
2019-05-07T02:46:57.583Z,20.47
2019-05-07T02:52:07.465Z,20.46
2019-05-07T02:57:16.642Z,20.39
2019-05-07T03:02:16.725Z,20.40
2019-05-07T03:07:23.891Z,20.37
2019-05-07T03:12:27.385Z,20.36
2019-05-07T03:17:33.288Z,20.32
2019-05-07T03:22:36.730Z,20.31
2019-05-07T03:27:43.170Z,20.31
2019-05-07T03:32:56.673Z,20.24
2019-05-07T03:38:03.502Z,20.22
2019-05-07T03:43:06.610Z,20.22
2019-05-07T03:48:13.736Z,20.18
2019-05-07T03:53:17.722Z,20.18
2019-05-07T03:58:23.615Z,20.12
2019-05-07T04:03:27.067Z,20.10
2019-05-07T04:08:33.437Z,20.08
2019-05-07T04:13:36.445Z,20.06
2019-05-07T04:18:43.358Z,20.06
2019-05-07T04:23:45.839Z,20.04
2019-05-07T04:29:05.556Z,20.03
2019-05-07T04:34:17.895Z,20.03
2019-05-07T04:39:23.230Z,20.03
2019-05-07T04:44:27.280Z,20.01
2019-05-07T04:49:33.159Z,20.01
2019-05-07T04:54:36.627Z,20.00
2019-05-07T04:59:42.902Z,20.00
2019-05-07T05:04:45.931Z,20.00
2019-05-07T05:09:49.901Z,19.97
2019-05-07T05:14:53.693Z,19.96
2019-05-07T05:20:00.361Z,19.96
2019-05-07T05:25:22.761Z,19.98
2019-05-07T05:30:34.022Z,19.98
2019-05-07T05:35:37.898Z,19.98
2019-05-07T05:40:42.644Z,19.96
2019-05-07T05:45:47.564Z,19.97
2019-05-07T05:51:02.668Z,19.97
2019-05-07T05:56:12.806Z,19.97
2019-05-07T06:01:35.593Z,19.96
2019-05-07T06:06:49.079Z,19.96
2019-05-07T06:12:06.917Z,19.95
2019-05-07T06:17:16.982Z,19.95
2019-05-07T06:22:42.547Z,19.97
2019-05-07T06:27:46.641Z,19.93
2019-05-07T06:32:52.258Z,19.93
2019-05-07T06:37:56.642Z,19.89
2019-05-07T06:43:28.540Z,19.89
2019-05-07T06:48:42.046Z,19.97
2019-05-07T06:53:37.846Z,19.97
2019-05-07T06:58:49.780Z,19.99
2019-05-07T07:04:04.093Z,17.10
2019-05-07T07:09:39.162Z,17.10
2019-05-07T07:14:43.655Z,15.37
2019-05-07T07:19:47.445Z,15.37
2019-05-07T07:24:53.120Z,14.54
2019-05-07T07:30:18.735Z,15.55
2019-05-07T07:35:22.645Z,17.72
2019-05-07T07:40:42.234Z,18.82
2019-05-07T07:45:46.235Z,19.51
2019-05-07T07:50:52.355Z,19.92
2019-05-07T07:56:13.360Z,20.11
2019-05-07T08:01:23.615Z,20.11
2019-05-07T08:06:29.395Z,20.18
2019-05-07T08:11:34.471Z,20.15
2019-05-07T08:16:38.290Z,20.28
2019-05-07T08:21:42.246Z,20.30
2019-05-07T08:26:46.035Z,20.33
2019-05-07T08:32:22.303Z,20.24
2019-05-07T08:37:26.285Z,20.28
2019-05-07T08:42:32.059Z,20.30
2019-05-07T08:47:44.993Z,20.30
2019-05-07T08:52:48.769Z,20.31
2019-05-07T08:57:52.565Z,20.30
2019-05-07T09:02:56.381Z,20.30
2019-05-07T09:08:02.094Z,20.30
2019-05-07T09:13:05.693Z,20.34
2019-05-07T09:18:09.473Z,20.35
2019-05-07T09:23:13.239Z,20.34
2019-05-07T09:28:17.212Z,20.33
2019-05-07T09:33:32.044Z,20.32
2019-05-07T09:38:35.970Z,20.35
2019-05-07T09:43:39.758Z,20.35
2019-05-07T09:48:43.535Z,20.41
2019-05-07T09:53:47.326Z,20.41
2019-05-07T09:58:53.071Z,20.41
2019-05-07T10:09:12.190Z,20.43
2019-05-07T10:14:16.052Z,20.42
2019-05-07T10:19:22.099Z,20.42
2019-05-07T10:24:25.379Z,20.44
2019-05-07T10:29:29.153Z,20.44
2019-05-07T10:34:32.933Z,20.45
2019-05-07T10:39:36.739Z,20.45
2019-05-07T10:44:46.640Z,20.46
2019-05-07T10:50:11.374Z,20.46
2019-05-07T10:55:14.913Z,20.46
2019-05-07T11:00:22.573Z,20.46
2019-05-07T11:05:26.492Z,20.47
2019-05-07T11:10:32.413Z,20.47
2019-05-07T11:15:36.248Z,20.47
2019-05-07T11:20:48.915Z,20.47
2019-05-07T11:25:45.631Z,20.50
2019-05-07T11:30:49.628Z,20.52
2019-05-07T11:35:53.479Z,20.52
2019-05-07T11:40:57.255Z,20.52
2019-05-07T11:46:14.638Z,17.80
2019-05-07T11:51:24.816Z,17.96
2019-05-07T11:56:28.596Z,17.96
2019-05-07T12:01:43.959Z,17.51
2019-05-07T12:06:38.499Z,19.08
2019-05-07T12:11:42.710Z,20.45
2019-05-07T12:16:46.564Z,20.72
2019-05-07T12:21:52.506Z,20.72
2019-05-07T12:26:55.849Z,20.65
2019-05-07T12:32:10.530Z,20.63
2019-05-07T12:37:14.320Z,20.63
2019-05-07T12:42:18.094Z,20.60
2019-05-07T12:47:22.505Z,20.71
2019-05-07T12:52:48.761Z,20.73
2019-05-07T12:57:52.547Z,20.74
2019-05-07T13:03:27.458Z,20.74
2019-05-07T13:08:32.948Z,20.72
2019-05-07T13:13:36.891Z,20.68
2019-05-07T13:18:42.294Z,20.68
2019-05-07T13:23:46.255Z,20.77
2019-05-07T13:28:50.094Z,20.77
2019-05-07T13:33:53.875Z,20.78
2019-05-07T13:39:08.197Z,20.78
2019-05-07T13:44:24.257Z,20.80
2019-05-07T13:49:28.150Z,21.00
2019-05-07T13:54:32.466Z,21.00
2019-05-07T13:59:36.393Z,20.97
2019-05-07T14:04:41.954Z,20.93
2019-05-07T14:09:45.874Z,20.90
2019-05-07T14:14:49.657Z,20.98
2019-05-07T14:19:53.430Z,21.00
2019-05-07T14:24:57.222Z,21.00
2019-05-07T14:30:02.719Z,20.94
2019-05-07T14:35:24.699Z,20.94
2019-05-07T14:40:28.537Z,20.93
2019-05-07T14:45:32.763Z,20.92
2019-05-07T14:50:36.650Z,20.95
2019-05-07T14:55:41.860Z,20.97
2019-05-07T15:00:45.892Z,20.94
2019-05-07T15:05:49.758Z,21.02
2019-05-07T15:10:53.563Z,21.07
2019-05-07T15:15:57.331Z,21.05
2019-05-07T15:21:01.871Z,21.08
2019-05-07T15:26:05.988Z,21.08
2019-05-07T15:31:42.370Z,21.06
2019-05-07T15:36:46.096Z,21.09
2019-05-07T15:41:51.798Z,21.08
2019-05-07T15:46:57.196Z,21.06
2019-05-07T15:52:03.493Z,21.06
2019-05-07T15:57:09.347Z,21.11
2019-05-07T16:02:24.035Z,21.11
2019-05-07T16:07:27.835Z,21.11
2019-05-07T16:12:31.994Z,21.52
2019-05-07T16:17:49.540Z,21.89
2019-05-07T16:22:56.530Z,21.89
2019-05-07T16:28:04.444Z,22.10
2019-05-07T16:33:06.094Z,22.16
2019-05-07T16:38:09.884Z,22.16
2019-05-07T16:43:14.126Z,22.16
2019-05-07T16:48:17.948Z,22.35
2019-05-07T16:53:29.655Z,22.34
2019-05-07T16:58:46.221Z,22.38
2019-05-07T17:03:54.586Z,22.38
2019-05-07T17:09:17.397Z,22.32
2019-05-07T17:14:21.189Z,22.39
2019-05-07T17:19:24.987Z,22.41
2019-05-07T17:24:28.757Z,22.41
2019-05-07T17:29:32.524Z,22.40
2019-05-07T17:34:36.458Z,22.40
2019-05-07T17:39:42.538Z,22.41
2019-05-07T17:44:45.929Z,22.51
2019-05-07T17:49:52.712Z,22.55
2019-05-07T17:54:56.389Z,22.49
2019-05-07T18:00:02.209Z,22.49
2019-05-07T18:05:06.438Z,22.49
2019-05-07T18:10:12.447Z,22.48
2019-05-07T18:15:16.137Z,22.48
2019-05-07T18:20:22.096Z,22.51
2019-05-07T18:25:25.455Z,22.54
2019-05-07T18:30:29.379Z,22.56
2019-05-07T18:35:33.141Z,22.47
2019-05-07T18:40:36.911Z,22.44
2019-05-07T18:45:40.677Z,22.44
2019-05-07T18:50:44.467Z,22.37
2019-05-07T18:55:48.249Z,22.41
2019-05-07T19:00:55.252Z,22.46
2019-05-07T19:05:59.027Z,22.46
2019-05-07T19:11:05.693Z,22.50
2019-05-07T19:16:08.706Z,22.48
2019-05-07T19:21:12.491Z,22.45
2019-05-07T19:26:16.263Z,22.40
2019-05-07T19:31:22.005Z,22.34
2019-05-07T19:36:25.546Z,22.22
2019-05-07T19:41:29.373Z,22.27
2019-05-07T19:46:33.406Z,22.18
2019-05-07T19:51:39.256Z,22.17
2019-05-07T19:56:43.048Z,22.17
2019-05-07T20:01:51.991Z,22.24
2019-05-07T20:06:55.952Z,22.16
2019-05-07T20:11:59.862Z,22.15
2019-05-07T20:17:03.804Z,22.13
2019-05-07T20:22:07.671Z,22.12
2019-05-07T20:27:12.514Z,22.09
2019-05-07T20:32:16.459Z,22.07
2019-05-07T20:37:21.994Z,22.02
2019-05-07T20:42:26.267Z,22.02
2019-05-07T20:47:32.421Z,22.07
2019-05-07T20:52:35.694Z,22.08
2019-05-07T20:57:42.760Z,22.03
2019-05-07T21:02:48.403Z,22.02
2019-05-07T21:07:52.470Z,21.99
2019-05-07T21:12:56.316Z,21.99
2019-05-07T21:18:00.127Z,21.96
2019-05-07T21:23:03.993Z,21.96
2019-05-07T21:28:07.762Z,21.96
2019-05-07T21:33:12.035Z,21.94
2019-05-07T21:38:15.985Z,21.93
2019-05-07T21:43:21.883Z,21.91
2019-05-07T21:48:25.265Z,21.91
2019-05-07T21:53:34.323Z,21.88
2019-05-07T21:58:45.241Z,21.85
2019-05-07T22:03:52.453Z,21.85
2019-05-07T22:08:56.282Z,21.81
2019-05-07T22:14:02.068Z,21.82
2019-05-07T22:19:05.822Z,21.82
2019-05-07T22:24:09.612Z,21.80
2019-05-07T22:29:13.514Z,21.79
2019-05-07T22:34:39.610Z,21.78
2019-05-07T22:39:43.472Z,21.76
2019-05-07T22:44:47.239Z,21.72
2019-05-07T22:49:53.503Z,21.73
2019-05-07T22:54:56.595Z,21.73
2019-05-07T23:00:04.234Z,21.69
2019-05-07T23:05:06.199Z,21.68
2019-05-07T23:10:11.907Z,21.65
2019-05-07T23:15:15.772Z,21.65
2019-05-07T23:20:19.518Z,21.62
2019-05-07T23:25:24.591Z,21.55
2019-05-07T23:30:28.619Z,21.53
2019-05-07T23:35:32.930Z,21.53
2019-05-07T23:40:49.932Z,21.52
2019-05-07T23:45:53.779Z,21.49
2019-05-07T23:50:57.594Z,21.47
2019-05-07T23:56:02.848Z,21.44
